Time;durP1;ratioP1;P1;durP2;ratioP2;P2;SDS_P1;SDS_P2;PMS_P1;PMS_P2;Temp;Humidity;BMP_temperature;BMP_pressure;BME280_temperature;BME280_humidity;BME280_pressure;Samples;Min_cycle;Max_cycle;Signal;HPM_P1;HPM_P2
2022/12/07 10:13:22;;;;;;;26.42;11.45;;;;;;;-2.22;100.00;100957.23;1797670;78;21007;-82
2022/12/07 10:16:26;;;;;;;20.35;12.35;;;;;;;-2.18;100.00;100958.55;1783221;79;20982;-81
2022/12/07 10:19:27;;;;;;;22.10;11.18;;;;;;;-2.12;100.00;100957.48;1755790;79;21045;-82
2022/12/07 10:22:14;;;;;;;18.82;8.08;;;;;;;-2.06;100.00;100955.40;1756518;80;21017;-82
2022/12/07 10:25:09;;;;;;;16.45;7.58;;;;;;;-1.99;100.00;100957.67;1777152;79;21026;-82
2022/12/07 10:28:16;;;;;;;16.65;7.33;;;;;;;-1.94;100.00;100957.94;1777512;79;20983;-82
2022/12/07 10:31:04;;;;;;;17.67;6.90;;;;;;;-1.88;100.00;100953.69;1827583;77;21021;-82
2022/12/07 10:34:00;;;;;;;18.65;7.20;;;;;;;-1.81;100.00;100954.09;1816681;77;21431;-82
2022/12/07 10:36:45;;;;;;;18.82;7.83;;;;;;;-1.77;100.00;100946.02;1839214;77;20989;-81
2022/12/07 10:39:30;;;;;;;19.10;9.03;;;;;;;-1.74;100.00;100946.98;1838151;77;20969;-81
2022/12/07 10:42:19;;;;;;;17.25;7.28;;;;;;;-1.72;100.00;100935.26;1748244;78;21001;-81
2022/12/07 10:45:17;;;;;;;16.32;7.65;;;;;;;-1.66;100.00;100935.84;1781850;78;20950;-81
2022/12/07 10:48:25;;;;;;;16.23;7.33;;;;;;;-1.61;100.00;100937.45;1808541;77;21044;-82
2022/12/07 10:51:44;;;;;;;17.73;7.40;;;;;;;-1.55;100.00;100931.34;1817138;77;21030;-82
2022/12/07 10:54:34;;;;;;;15.60;6.67;;;;;;;-1.49;100.00;100927.91;1784672;78;20946;-82
2022/12/07 10:57:39;;;;;;;14.63;7.25;;;;;;;-1.45;100.00;100931.87;1807779;79;21010;-82
2022/12/07 11:00:24;;;;;;;22.42;8.10;;;;;;;-1.42;100.00;100928.81;1776961;80;20998;-82
2022/12/07 11:03:20;;;;;;;16.40;7.60;;;;;;;-1.48;100.00;100918.86;1765092;79;21035;-81
2022/12/07 11:06:27;;;;;;;14.85;6.97;;;;;;;-1.50;100.00;100922.23;1760452;80;21006;-82
2022/12/07 11:09:36;;;;;;;20.65;8.00;;;;;;;-1.49;100.00;100912.34;1773479;79;21026;-82
2022/12/07 11:12:29;;;;;;;17.27;7.45;;;;;;;-1.54;100.00;100905.68;1788449;79;21496;-82
2022/12/07 11:15:22;;;;;;;22.35;7.25;;;;;;;-1.54;100.00;100903.52;1784558;79;21023;-82
2022/12/07 11:18:29;;;;;;;16.55;6.47;;;;;;;-1.50;100.00;100899.97;1777371;77;20957;-82
2022/12/07 11:21:57;;;;;;;18.12;6.78;;;;;;;-1.48;100.00;100900.58;1780367;77;20958;-81
2022/12/07 11:25:31;;;;;;;14.70;7.33;;;;;;;-1.48;100.00;100894.73;1826321;77;21631;-82
2022/12/07 11:28:46;;;;;;;19.70;8.18;;;;;;;-1.50;100.00;100897.28;1760382;80;21164;-81
2022/12/07 11:31:52;;;;;;;12.82;7.95;;;;;;;-1.51;100.00;100892.41;1759872;79;21003;-82
2022/12/07 11:35:26;;;;;;;17.57;7.00;;;;;;;-1.52;100.00;100886.73;1850425;77;21002;-82
2022/12/07 11:38:14;;;;;;;16.75;6.03;;;;;;;-1.52;100.00;100893.44;1838616;77;21041;-82
2022/12/07 11:41:12;;;;;;;14.18;5.97;;;;;;;-1.53;100.00;100881.07;1782791;79;21007;-82
2022/12/07 11:44:14;;;;;;;16.93;7.72;;;;;;;-1.55;100.00;100883.11;1789932;76;21442;-82
2022/12/07 11:47:15;;;;;;;18.55;8.10;;;;;;;-1.56;100.00;100878.27;1853988;77;20981;-81
2022/12/07 11:50:33;;;;;;;13.03;5.92;;;;;;;-1.55;100.00;100877.75;1823391;77;20958;-82
2022/12/07 11:53:27;;;;;;;19.65;7.65;;;;;;;-1.56;100.00;100878.75;1848294;77;21168;-81
2022/12/07 11:56:14;;;;;;;12.65;5.50;;;;;;;-1.56;100.00;100869.36;1833243;77;21007;-81
2022/12/07 11:59:24;;;;;;;13.10;7.60;;;;;;;-1.59;100.00;100880.47;1763987;80;21061;-81
2022/12/07 12:02:24;;;;;;;17.73;7.10;;;;;;;-1.60;100.00;100878.30;1840323;77;21403;-82
2022/12/07 12:05:21;;;;;;;16.48;8.45;;;;;;;-1.62;100.00;100872.30;1785194;79;21012;-81
2022/12/07 12:08:21;;;;;;;13.20;6.58;;;;;;;-1.64;100.00;100874.34;1752184;80;20963;-81
2022/12/07 12:11:17;;;;;;;16.65;6.85;;;;;;;-1.65;100.00;100882.06;1790317;79;21048;-81
2022/12/07 12:14:31;;;;;;;22.02;7.33;;;;;;;-1.65;100.00;100869.19;1832093;77;20991;-82
2022/12/07 12:17:45;;;;;;;14.73;7.67;;;;;;;-1.66;100.00;100864.83;1791092;78;20967;-81
2022/12/07 12:20:51;;;;;;;12.75;5.53;;;;;;;-1.69;100.00;100863.87;1774407;80;21012;-82
2022/12/07 12:23:52;;;;;;;12.00;6.28;;;;;;;-1.72;100.00;100866.42;1800015;79;21555;-81
2022/12/07 12:26:37;;;;;;;13.72;6.70;;;;;;;-1.71;100.00;100868.58;1834464;77;21059;-81
2022/12/07 12:29:34;;;;;;;12.05;6.47;;;;;;;-1.72;100.00;100868.27;1785367;78;21009;-81
2022/12/07 12:32:26;;;;;;;14.87;6.65;;;;;;;-1.72;100.00;100869.61;1801094;78;22099;-82
2022/12/07 12:35:30;;;;;;;9.98;5.45;;;;;;;-1.74;100.00;100865.25;1782070;78;21032;-82
2022/12/07 12:38:36;;;;;;;12.53;5.62;;;;;;;-1.73;100.00;100860.75;1778252;80;21128;-82
2022/12/07 12:42:05;;;;;;;14.00;6.28;;;;;;;-1.71;100.00;100871.26;1762093;80;21033;-82
2022/12/07 12:44:37;;;;;;;17.12;7.30;;;;;;;-1.72;100.00;100869.61;1815943;77;21068;-82
2022/12/07 12:47:43;;;;;;;15.55;6.67;;;;;;;-1.72;100.00;100865.59;1815498;77;21056;-82
2022/12/07 12:50:34;;;;;;;12.90;7.10;;;;;;;-1.75;100.00;100864.95;1816953;77;21108;-83
2022/12/07 12:53:25;;;;;;;13.22;6.70;;;;;;;-1.75;100.00;100863.61;1811010;78;21054;-82
2022/12/07 12:56:41;;;;;;;15.15;6.20;;;;;;;-1.75;100.00;100862.27;1817304;76;21014;-82
2022/12/07 16:11:52;;;;;;;26.02;12.50;;;;;;;-2.62;100.00;100856.80;1742665;80;21006;-78
2022/12/07 16:14:37;;;;;;;42.33;15.83;;;;;;;-2.55;100.00;100850.18;1745336;79;21518;-79
2022/12/07 16:17:22;;;;;;;44.30;16.67;;;;;;;-2.49;100.00;100850.80;1753320;79;21002;-79
2022/12/07 16:20:08;;;;;;;49.42;20.35;;;;;;;-2.44;100.00;100849.73;1756225;79;21104;-79
2022/12/07 16:22:53;;;;;;;54.67;17.05;;;;;;;-2.38;100.00;100847.64;1734271;81;20982;-79
2022/12/07 16:25:38;;;;;;;46.00;17.87;;;;;;;-2.31;100.00;100835.70;1697127;83;21090;-79
2022/12/07 16:28:22;;;;;;;32.48;12.90;;;;;;;-2.24;100.00;100834.77;1685164;82;21033;-79
2022/12/07 16:31:13;;;;;;;25.10;11.85;;;;;;;-2.21;100.00;100828.22;1718515;82;21047;-79
2022/12/07 16:33:58;;;;;;;24.80;11.08;;;;;;;-2.18;100.00;100834.05;1702952;82;21012;-79
2022/12/07 16:36:43;;;;;;;22.67;9.28;;;;;;;-2.12;100.00;100831.63;1774403;79;21656;-79
2022/12/07 16:39:27;;;;;;;22.75;8.93;;;;;;;-2.10;100.00;100835.78;1692714;83;21108;-81
2022/12/07 16:42:12;;;;;;;18.90;9.15;;;;;;;-2.03;100.00;100835.84;1686952;82;21039;-80
2022/12/07 16:44:56;;;;;;;24.65;9.40;;;;;;;-1.98;100.00;100829.41;1691441;82;21037;-80
2022/12/07 16:47:42;;;;;;;20.95;8.68;;;;;;;-1.94;100.00;100836.06;1656567;85;21078;-80
2022/12/07 16:50:27;;;;;;;17.95;9.33;;;;;;;-1.95;100.00;100828.55;1711377;81;21049;-80
2022/12/07 16:53:11;;;;;;;22.22;8.68;;;;;;;-1.91;100.00;100820.95;1693575;82;21093;-80
2022/12/07 16:55:56;;;;;;;20.02;10.30;;;;;;;-1.90;100.00;100811.06;1710327;81;21066;-80
2022/12/07 16:58:46;;;;;;;26.05;9.95;;;;;;;-1.89;100.00;100824.28;1729994;81;21477;-81
2022/12/07 17:01:31;;;;;;;23.45;9.80;;;;;;;-1.86;100.00;100826.58;1735218;81;21069;-81
2022/12/07 17:04:15;;;;;;;22.70;9.83;;;;;;;-1.89;100.00;100837.67;1754310;79;21066;-81
2022/12/07 17:07:00;;;;;;;19.35;8.38;;;;;;;-1.88;100.00;100835.34;1709374;82;21582;-81
2022/12/07 17:09:45;;;;;;;25.85;10.53;;;;;;;-1.86;100.00;100830.59;1758426;80;20975;-81
2022/12/07 17:12:30;;;;;;;26.55;9.18;;;;;;;-1.83;100.00;100835.59;1703261;83;21200;-81
2022/12/07 17:15:18;;;;;;;20.77;8.90;;;;;;;-1.81;100.00;100833.53;1737611;81;21030;-81
2022/12/07 17:18:02;;;;;;;25.32;10.82;;;;;;;-1.81;100.00;100822.81;1739624;81;21035;-81
2022/12/07 17:20:47;;;;;;;23.32;11.48;;;;;;;-1.79;100.00;100834.18;1741125;81;21476;-81
2022/12/07 17:23:32;;;;;;;28.12;11.05;;;;;;;-1.73;100.00;100837.98;1734186;81;21024;-81
2022/12/07 17:26:23;;;;;;;31.50;12.07;;;;;;;-1.69;100.00;100835.73;1679380;83;21057;-81
2022/12/07 17:29:08;;;;;;;29.77;12.60;;;;;;;-1.68;100.00;100837.38;1686044;83;21468;-81
2022/12/07 17:31:53;;;;;;;28.98;10.35;;;;;;;-1.68;100.00;100832.02;1742194;80;21049;-81
2022/12/07 17:34:37;;;;;;;26.45;11.35;;;;;;;-1.67;100.00;100843.08;1693801;82;21003;-81
2022/12/07 17:37:21;;;;;;;39.25;12.78;;;;;;;-1.67;100.00;100841.73;1689752;82;21150;-81
2022/12/07 17:40:07;;;;;;;23.22;10.38;;;;;;;-1.68;100.00;100838.72;1691829;82;21002;-81
2022/12/07 17:42:51;;;;;;;29.52;11.80;;;;;;;-1.66;100.00;100846.06;1739044;81;21065;-81
2022/12/07 17:45:37;;;;;;;20.62;8.93;;;;;;;-1.68;100.00;100851.63;1740269;81;21001;-81
2022/12/07 17:48:22;;;;;;;23.20;10.65;;;;;;;-1.67;100.00;100851.12;1737327;80;21026;-81
2022/12/07 17:54:10;;;;;;;20.97;9.53;;;;;;;-1.62;100.00;100860.24;1655035;84;21093;-81
2022/12/07 17:56:54;;;;;;;19.57;10.15;;;;;;;-1.60;100.00;100858.73;1659633;84;20980;-81
2022/12/07 17:59:39;;;;;;;18.75;9.53;;;;;;;-1.54;100.00;100850.73;1690772;82;21023;-81
2022/12/07 18:02:24;;;;;;;23.70;10.20;;;;;;;-1.52;100.00;100849.22;1739067;81;21053;-81
2022/12/07 18:05:10;;;;;;;20.43;9.45;;;;;;;-1.48;100.00;100844.29;1732806;80;22820;-81
2022/12/07 18:07:55;;;;;;;25.40;9.55;;;;;;;-1.48;100.00;100845.14;1705550;82;21022;-80
2022/12/07 18:10:39;;;;;;;18.90;9.83;;;;;;;-1.52;100.00;100841.17;1709404;82;21034;-79
2022/12/07 18:13:37;;;;;;;14.87;7.83;;;;;;;-1.50;100.00;100837.80;1765623;80;21050;-81
2022/12/07 18:16:24;;;;;;;19.12;8.88;;;;;;;-1.50;100.00;100836.98;1760888;80;22087;-80
2022/12/07 18:19:12;;;;;;;19.42;9.80;;;;;;;-1.52;100.00;100835.30;1753218;80;20947;-80
2022/12/07 18:21:55;;;;;;;18.02;8.00;;;;;;;-1.48;100.00;100837.59;1725706;81;21450;-81
2022/12/07 18:24:40;;;;;;;21.33;9.68;;;;;;;-1.46;100.00;100836.38;1691078;81;20978;-81
2022/12/07 18:27:25;;;;;;;16.70;7.83;;;;;;;-1.48;100.00;100841.13;1714913;82;21470;-81
2022/12/07 18:30:10;;;;;;;19.70;7.25;;;;;;;-1.51;100.00;100838.80;1742024;80;21038;-81
2022/12/07 18:32:56;;;;;;;16.65;7.25;;;;;;;-1.49;100.00;100833.27;1733815;82;20962;-81
2022/12/07 18:35:40;;;;;;;20.68;9.13;;;;;;;-1.49;100.00;100831.41;1701328;83;21044;-81
2022/12/07 18:38:26;;;;;;;13.43;7.03;;;;;;;-1.49;100.00;100826.56;1714322;82;21018;-81
2022/12/07 18:41:12;;;;;;;17.32;7.00;;;;;;;-1.49;100.00;100830.58;1690226;83;21116;-81
2022/12/07 18:43:56;;;;;;;13.85;6.17;;;;;;;-1.50;100.00;100824.91;1696112;81;21001;-83
2022/12/07 18:46:41;;;;;;;16.80;6.92;;;;;;;-1.49;100.00;100820.69;1720534;80;21001;-82
2022/12/07 18:49:26;;;;;;;12.43;6.20;;;;;;;-1.47;100.00;100823.19;1734949;81;20990;-83
2022/12/07 18:52:11;;;;;;;11.68;5.12;;;;;;;-1.49;100.00;100815.32;1737640;81;21031;-83
2022/12/07 18:54:56;;;;;;;11.93;6.25;;;;;;;-1.52;100.00;100813.86;1673866;82;21011;-82
2022/12/07 18:57:40;;;;;;;9.95;5.70;;;;;;;-1.48;100.00;100815.66;1749115;81;21066;-83
2022/12/07 21:03:42;;;;;;;10.18;4.08;;;;;;;-1.23;100.00;100850.13;1830752;77;28957;-91
2022/12/07 21:06:27;;;;;;;10.35;4.80;;;;;;;-1.22;100.00;100853.12;1686878;78;73061;-84
2022/12/07 21:09:12;;;;;;;18.05;7.67;;;;;;;-1.14;100.00;100844.93;1698920;83;21040;-84
2022/12/07 21:11:57;;;;;;;9.78;4.62;;;;;;;-1.10;100.00;100840.85;1680039;84;21010;-84
2022/12/07 21:14:42;;;;;;;6.70;3.15;;;;;;;-1.06;100.00;100837.26;1690841;83;21001;-84
2022/12/07 21:17:26;;;;;;;6.45;4.08;;;;;;;-1.00;100.00;100834.64;1678159;83;21041;-84
2022/12/07 21:20:11;;;;;;;8.45;3.72;;;;;;;-0.94;100.00;100840.59;1691757;84;21069;-84
2022/12/07 21:22:56;;;;;;;8.45;3.60;;;;;;;-0.84;100.00;100836.23;1657246;84;21049;-84
2022/12/07 21:25:41;;;;;;;4.55;2.75;;;;;;;-0.77;100.00;100842.97;1624642;87;21105;-84
2022/12/07 21:28:26;;;;;;;5.33;3.65;;;;;;;-0.71;100.00;100839.52;1676835;85;20970;-84
2022/12/07 21:31:10;;;;;;;7.95;3.70;;;;;;;-0.68;100.00;100849.85;1658654;85;21417;-84
2022/12/07 21:33:55;;;;;;;8.75;3.72;;;;;;;-0.64;100.00;100853.81;1676645;84;20986;-84
2022/12/07 21:36:39;;;;;;;4.92;3.12;;;;;;;-0.60;100.00;100848.87;1676517;83;21054;-84
2022/12/07 21:39:24;;;;;;;11.08;4.08;;;;;;;-0.59;100.00;100847.34;1676396;83;20918;-84
2022/12/07 21:42:09;;;;;;;6.87;3.35;;;;;;;-0.56;100.00;100846.95;1676398;83;21038;-83
2022/12/07 21:44:54;;;;;;;6.10;3.45;;;;;;;-0.56;100.00;100850.14;1676421;85;21002;-84
2022/12/07 21:47:39;;;;;;;7.45;4.08;;;;;;;-0.55;100.00;100851.27;1676640;84;21026;-84
2022/12/07 21:50:24;;;;;;;5.78;3.12;;;;;;;-0.56;100.00;100848.28;1676128;85;21501;-84
2022/12/07 21:53:08;;;;;;;5.20;3.72;;;;;;;-0.56;100.00;100848.28;1671189;84;20994;-84
2022/12/07 21:55:52;;;;;;;6.85;3.85;;;;;;;-0.56;100.00;100849.63;1674648;85;20993;-84
2022/12/07 21:58:37;;;;;;;7.17;3.72;;;;;;;-0.59;100.00;100851.38;1659388;85;21073;-84
2022/12/07 22:01:24;;;;;;;6.65;3.12;;;;;;;-0.57;100.00;100845.30;1651706;85;21045;-84
